sensor_id;sensor_type;location;lat;lon;timestamp;P1;durP1;ratioP1;P2;durP2;ratioP2
36787;SDS011;22738;45.560;9.434;2022-09-28T00:08:02;2.45;;;1.63;;
36787;SDS011;22738;45.560;9.434;2022-09-28T00:14:43;5.35;;;2.00;;
36787;SDS011;22738;45.560;9.434;2022-09-28T00:21:29;2.72;;;1.80;;
36787;SDS011;22738;45.560;9.434;2022-09-28T00:28:12;2.75;;;1.65;;
36787;SDS011;22738;45.560;9.434;2022-09-28T00:34:53;6.57;;;1.83;;
36787;SDS011;22738;45.560;9.434;2022-09-28T00:41:34;3.03;;;1.67;;
36787;SDS011;22738;45.560;9.434;2022-09-28T00:48:15;3.58;;;1.67;;
36787;SDS011;22738;45.560;9.434;2022-09-28T00:54:57;3.13;;;1.70;;
36787;SDS011;22738;45.560;9.434;2022-09-28T01:01:41;3.80;;;2.35;;
36787;SDS011;22738;45.560;9.434;2022-09-28T01:08:23;5.75;;;2.10;;
36787;SDS011;22738;45.560;9.434;2022-09-28T01:15:07;5.32;;;2.58;;
36787;SDS011;22738;45.560;9.434;2022-09-28T01:21:53;2.75;;;1.58;;
36787;SDS011;22738;45.560;9.434;2022-09-28T01:28:52;2.97;;;1.65;;
36787;SDS011;22738;45.560;9.434;2022-09-28T01:35:57;5.82;;;2.33;;
36787;SDS011;22738;45.560;9.434;2022-09-28T01:42:43;4.95;;;1.83;;
36787;SDS011;22738;45.560;9.434;2022-09-28T01:49:27;5.47;;;2.05;;
36787;SDS011;22738;45.560;9.434;2022-09-28T01:56:15;9.13;;;3.35;;
36787;SDS011;22738;45.560;9.434;2022-09-28T02:03:11;4.55;;;2.70;;
36787;SDS011;22738;45.560;9.434;2022-09-28T02:10:04;9.45;;;3.22;;
36787;SDS011;22738;45.560;9.434;2022-09-28T02:16:53;6.38;;;3.13;;
36787;SDS011;22738;45.560;9.434;2022-09-28T02:23:48;7.40;;;3.60;;
36787;SDS011;22738;45.560;9.434;2022-09-28T02:30:38;6.32;;;3.28;;
36787;SDS011;22738;45.560;9.434;2022-09-28T02:37:22;6.72;;;3.72;;
36787;SDS011;22738;45.560;9.434;2022-09-28T02:44:16;9.88;;;4.30;;
36787;SDS011;22738;45.560;9.434;2022-09-28T02:51:17;8.27;;;4.95;;
36787;SDS011;22738;45.560;9.434;2022-09-28T03:05:31;14.82;;;5.75;;
36787;SDS011;22738;45.560;9.434;2022-09-28T03:12:31;12.30;;;6.07;;
36787;SDS011;22738;45.560;9.434;2022-09-28T03:19:13;12.35;;;5.47;;
36787;SDS011;22738;45.560;9.434;2022-09-28T03:25:57;10.30;;;5.80;;
36787;SDS011;22738;45.560;9.434;2022-09-28T03:32:40;8.02;;;4.97;;
36787;SDS011;22738;45.560;9.434;2022-09-28T03:39:23;9.73;;;5.65;;
36787;SDS011;22738;45.560;9.434;2022-09-28T03:46:04;9.30;;;5.80;;
36787;SDS011;22738;45.560;9.434;2022-09-28T03:52:50;8.50;;;5.22;;
36787;SDS011;22738;45.560;9.434;2022-09-28T03:59:31;13.02;;;5.28;;
36787;SDS011;22738;45.560;9.434;2022-09-28T04:06:12;9.10;;;5.40;;
36787;SDS011;22738;45.560;9.434;2022-09-28T04:12:54;7.38;;;4.80;;
36787;SDS011;22738;45.560;9.434;2022-09-28T04:19:37;8.75;;;5.72;;
36787;SDS011;22738;45.560;9.434;2022-09-28T04:26:47;8.85;;;4.55;;
36787;SDS011;22738;45.560;9.434;2022-09-28T04:33:30;9.70;;;5.07;;
36787;SDS011;22738;45.560;9.434;2022-09-28T04:40:12;9.68;;;4.13;;
36787;SDS011;22738;45.560;9.434;2022-09-28T04:46:53;10.48;;;3.83;;
36787;SDS011;22738;45.560;9.434;2022-09-28T04:53:44;7.80;;;4.13;;
36787;SDS011;22738;45.560;9.434;2022-09-28T05:00:27;8.13;;;4.72;;
36787;SDS011;22738;45.560;9.434;2022-09-28T05:07:28;6.88;;;4.20;;
36787;SDS011;22738;45.560;9.434;2022-09-28T05:14:12;10.45;;;4.30;;
36787;SDS011;22738;45.560;9.434;2022-09-28T05:20:54;9.20;;;4.18;;
36787;SDS011;22738;45.560;9.434;2022-09-28T05:27:35;10.15;;;5.78;;
36787;SDS011;22738;45.560;9.434;2022-09-28T05:34:32;7.05;;;4.18;;
36787;SDS011;22738;45.560;9.434;2022-09-28T05:41:13;7.53;;;4.93;;
36787;SDS011;22738;45.560;9.434;2022-09-28T05:47:55;8.93;;;4.50;;
36787;SDS011;22738;45.560;9.434;2022-09-28T05:54:36;9.75;;;4.97;;
36787;SDS011;22738;45.560;9.434;2022-09-28T06:01:17;13.25;;;6.38;;
36787;SDS011;22738;45.560;9.434;2022-09-28T06:07:59;8.75;;;5.00;;
36787;SDS011;22738;45.560;9.434;2022-09-28T06:14:42;9.93;;;5.05;;
36787;SDS011;22738;45.560;9.434;2022-09-28T06:21:25;7.28;;;4.13;;
36787;SDS011;22738;45.560;9.434;2022-09-28T06:28:08;8.80;;;4.45;;
36787;SDS011;22738;45.560;9.434;2022-09-28T06:34:51;7.82;;;4.13;;
36787;SDS011;22738;45.560;9.434;2022-09-28T06:41:33;7.22;;;4.05;;
36787;SDS011;22738;45.560;9.434;2022-09-28T06:48:25;8.27;;;4.22;;
36787;SDS011;22738;45.560;9.434;2022-09-28T06:55:06;9.75;;;5.07;;
36787;SDS011;22738;45.560;9.434;2022-09-28T07:01:54;9.43;;;5.15;;
36787;SDS011;22738;45.560;9.434;2022-09-28T07:08:54;10.00;;;5.32;;
36787;SDS011;22738;45.560;9.434;2022-09-28T07:15:46;13.18;;;5.50;;
36787;SDS011;22738;45.560;9.434;2022-09-28T07:22:29;8.10;;;3.95;;
36787;SDS011;22738;45.560;9.434;2022-09-28T07:29:11;6.78;;;3.75;;
36787;SDS011;22738;45.560;9.434;2022-09-28T07:36:18;9.32;;;4.82;;
36787;SDS011;22738;45.560;9.434;2022-09-28T07:43:04;9.75;;;5.05;;
36787;SDS011;22738;45.560;9.434;2022-09-28T07:49:46;11.82;;;6.90;;
36787;SDS011;22738;45.560;9.434;2022-09-28T07:56:49;10.52;;;6.47;;
36787;SDS011;22738;45.560;9.434;2022-09-28T08:03:39;13.23;;;8.63;;
36787;SDS011;22738;45.560;9.434;2022-09-28T08:10:20;17.73;;;8.52;;
36787;SDS011;22738;45.560;9.434;2022-09-28T08:17:36;18.67;;;8.35;;
36787;SDS011;22738;45.560;9.434;2022-09-28T08:24:21;14.07;;;7.60;;
36787;SDS011;22738;45.560;9.434;2022-09-28T08:31:05;14.00;;;7.65;;
36787;SDS011;22738;45.560;9.434;2022-09-28T08:38:25;12.45;;;6.25;;
36787;SDS011;22738;45.560;9.434;2022-09-28T08:45:17;13.40;;;7.50;;
36787;SDS011;22738;45.560;9.434;2022-09-28T08:52:22;17.23;;;8.32;;
36787;SDS011;22738;45.560;9.434;2022-09-28T08:59:51;11.13;;;7.55;;
36787;SDS011;22738;45.560;9.434;2022-09-28T09:21:14;11.40;;;6.20;;
36787;SDS011;22738;45.560;9.434;2022-09-28T09:42:24;11.75;;;6.78;;
36787;SDS011;22738;45.560;9.434;2022-09-28T09:49:29;13.48;;;6.95;;
36787;SDS011;22738;45.560;9.434;2022-09-28T09:56:20;9.13;;;6.03;;
36787;SDS011;22738;45.560;9.434;2022-09-28T10:03:28;12.52;;;4.90;;
36787;SDS011;22738;45.560;9.434;2022-09-28T10:17:15;8.63;;;3.90;;
36787;SDS011;22738;45.560;9.434;2022-09-28T10:38:16;5.93;;;3.17;;
36787;SDS011;22738;45.560;9.434;2022-09-28T10:45:20;6.88;;;3.55;;
36787;SDS011;22738;45.560;9.434;2022-09-28T10:52:03;7.20;;;3.75;;
36787;SDS011;22738;45.560;9.434;2022-09-28T10:58:52;6.57;;;4.90;;
36787;SDS011;22738;45.560;9.434;2022-09-28T11:12:40;8.98;;;4.90;;
36787;SDS011;22738;45.560;9.434;2022-09-28T11:19:27;12.98;;;4.93;;
36787;SDS011;22738;45.560;9.434;2022-09-28T11:26:11;8.27;;;5.35;;
36787;SDS011;22738;45.560;9.434;2022-09-28T11:33:05;11.38;;;6.32;;
36787;SDS011;22738;45.560;9.434;2022-09-28T11:40:19;8.38;;;5.78;;
36787;SDS011;22738;45.560;9.434;2022-09-28T11:54:28;12.15;;;6.78;;
36787;SDS011;22738;45.560;9.434;2022-09-28T12:01:37;9.63;;;6.28;;
36787;SDS011;22738;45.560;9.434;2022-09-28T12:08:34;13.38;;;7.25;;
36787;SDS011;22738;45.560;9.434;2022-09-28T12:15:24;13.60;;;7.38;;
36787;SDS011;22738;45.560;9.434;2022-09-28T12:22:18;14.15;;;7.57;;
36787;SDS011;22738;45.560;9.434;2022-09-28T12:29:05;15.30;;;6.82;;
36787;SDS011;22738;45.560;9.434;2022-09-28T12:43:05;15.32;;;7.80;;
36787;SDS011;22738;45.560;9.434;2022-09-28T12:57:06;13.38;;;8.98;;
36787;SDS011;22738;45.560;9.434;2022-09-28T13:25:10;14.32;;;9.95;;
36787;SDS011;22738;45.560;9.434;2022-09-28T13:31:57;16.38;;;10.63;;
36787;SDS011;22738;45.560;9.434;2022-09-28T13:38:48;16.33;;;9.75;;
36787;SDS011;22738;45.560;9.434;2022-09-28T13:45:30;26.15;;;12.60;;
36787;SDS011;22738;45.560;9.434;2022-09-28T13:59:30;17.77;;;11.23;;
36787;SDS011;22738;45.560;9.434;2022-09-28T14:13:03;20.97;;;11.70;;
36787;SDS011;22738;45.560;9.434;2022-09-28T14:19:44;19.38;;;11.70;;
36787;SDS011;22738;45.560;9.434;2022-09-28T14:33:54;21.27;;;12.45;;
36787;SDS011;22738;45.560;9.434;2022-09-28T14:54:54;23.67;;;11.80;;
36787;SDS011;22738;45.560;9.434;2022-09-28T15:01:37;22.77;;;12.47;;
36787;SDS011;22738;45.560;9.434;2022-09-28T15:08:19;24.33;;;11.60;;
36787;SDS011;22738;45.560;9.434;2022-09-28T15:15:05;19.73;;;11.00;;
36787;SDS011;22738;45.560;9.434;2022-09-28T15:21:58;20.75;;;11.63;;
36787;SDS011;22738;45.560;9.434;2022-09-28T15:28:42;20.05;;;11.57;;
36787;SDS011;22738;45.560;9.434;2022-09-28T15:35:25;21.58;;;10.60;;
36787;SDS011;22738;45.560;9.434;2022-09-28T15:42:07;18.58;;;10.90;;
36787;SDS011;22738;45.560;9.434;2022-09-28T15:48:51;27.13;;;12.07;;
36787;SDS011;22738;45.560;9.434;2022-09-28T15:55:40;22.73;;;10.52;;
36787;SDS011;22738;45.560;9.434;2022-09-28T16:02:24;13.88;;;7.70;;
36787;SDS011;22738;45.560;9.434;2022-09-28T16:09:18;16.40;;;9.50;;
36787;SDS011;22738;45.560;9.434;2022-09-28T16:16:14;26.15;;;10.35;;
36787;SDS011;22738;45.560;9.434;2022-09-28T16:22:57;20.02;;;9.95;;
36787;SDS011;22738;45.560;9.434;2022-09-28T16:29:45;21.67;;;10.82;;
36787;SDS011;22738;45.560;9.434;2022-09-28T16:37:04;16.10;;;9.35;;
36787;SDS011;22738;45.560;9.434;2022-09-28T16:44:12;22.63;;;10.38;;
36787;SDS011;22738;45.560;9.434;2022-09-28T16:51:03;20.83;;;9.30;;
36787;SDS011;22738;45.560;9.434;2022-09-28T16:57:45;17.42;;;9.43;;
36787;SDS011;22738;45.560;9.434;2022-09-28T17:04:30;15.40;;;8.93;;
36787;SDS011;22738;45.560;9.434;2022-09-28T17:11:14;18.33;;;8.75;;
36787;SDS011;22738;45.560;9.434;2022-09-28T17:17:58;16.95;;;8.60;;
36787;SDS011;22738;45.560;9.434;2022-09-28T17:24:39;18.20;;;7.18;;
36787;SDS011;22738;45.560;9.434;2022-09-28T17:31:21;10.63;;;6.72;;
36787;SDS011;22738;45.560;9.434;2022-09-28T17:38:03;10.48;;;5.97;;
36787;SDS011;22738;45.560;9.434;2022-09-28T17:44:45;10.32;;;5.30;;
36787;SDS011;22738;45.560;9.434;2022-09-28T17:51:29;19.17;;;6.22;;
36787;SDS011;22738;45.560;9.434;2022-09-28T17:58:16;12.30;;;5.57;;
36787;SDS011;22738;45.560;9.434;2022-09-28T18:04:59;12.00;;;6.15;;
36787;SDS011;22738;45.560;9.434;2022-09-28T18:11:42;11.00;;;5.30;;
36787;SDS011;22738;45.560;9.434;2022-09-28T18:18:25;11.48;;;4.63;;
36787;SDS011;22738;45.560;9.434;2022-09-28T18:25:07;11.50;;;4.57;;
36787;SDS011;22738;45.560;9.434;2022-09-28T18:31:49;8.68;;;5.32;;
36787;SDS011;22738;45.560;9.434;2022-09-28T18:38:31;10.27;;;4.43;;
36787;SDS011;22738;45.560;9.434;2022-09-28T18:45:16;14.57;;;5.13;;
36787;SDS011;22738;45.560;9.434;2022-09-28T18:51:59;16.63;;;5.15;;
36787;SDS011;22738;45.560;9.434;2022-09-28T18:58:46;9.93;;;5.50;;
36787;SDS011;22738;45.560;9.434;2022-09-28T19:05:28;11.73;;;6.10;;
36787;SDS011;22738;45.560;9.434;2022-09-28T19:12:10;11.48;;;5.03;;
36787;SDS011;22738;45.560;9.434;2022-09-28T19:18:54;12.13;;;6.03;;
36787;SDS011;22738;45.560;9.434;2022-09-28T19:25:38;10.77;;;5.22;;
36787;SDS011;22738;45.560;9.434;2022-09-28T19:32:21;12.70;;;5.28;;
36787;SDS011;22738;45.560;9.434;2022-09-28T19:39:03;14.85;;;5.78;;
36787;SDS011;22738;45.560;9.434;2022-09-28T19:45:46;10.40;;;5.28;;
36787;SDS011;22738;45.560;9.434;2022-09-28T19:52:31;11.20;;;6.15;;
36787;SDS011;22738;45.560;9.434;2022-09-28T19:59:15;15.70;;;6.00;;
36787;SDS011;22738;45.560;9.434;2022-09-28T20:05:57;11.18;;;5.80;;
36787;SDS011;22738;45.560;9.434;2022-09-28T20:12:40;13.65;;;6.80;;
36787;SDS011;22738;45.560;9.434;2022-09-28T20:19:22;18.02;;;7.20;;
36787;SDS011;22738;45.560;9.434;2022-09-28T20:26:05;17.20;;;8.32;;
36787;SDS011;22738;45.560;9.434;2022-09-28T20:32:48;15.63;;;8.77;;
36787;SDS011;22738;45.560;9.434;2022-09-28T20:39:30;18.65;;;8.75;;
36787;SDS011;22738;45.560;9.434;2022-09-28T20:46:12;16.73;;;9.30;;
36787;SDS011;22738;45.560;9.434;2022-09-28T20:52:55;15.90;;;8.15;;
36787;SDS011;22738;45.560;9.434;2022-09-28T20:59:36;12.65;;;7.30;;
36787;SDS011;22738;45.560;9.434;2022-09-28T21:06:19;16.67;;;8.25;;
36787;SDS011;22738;45.560;9.434;2022-09-28T21:13:04;16.65;;;7.53;;
36787;SDS011;22738;45.560;9.434;2022-09-28T21:19:48;17.88;;;8.43;;
36787;SDS011;22738;45.560;9.434;2022-09-28T21:26:30;13.77;;;8.68;;
36787;SDS011;22738;45.560;9.434;2022-09-28T21:33:12;12.13;;;6.47;;
36787;SDS011;22738;45.560;9.434;2022-09-28T21:39:55;13.43;;;7.18;;
36787;SDS011;22738;45.560;9.434;2022-09-28T21:46:37;12.90;;;6.95;;
36787;SDS011;22738;45.560;9.434;2022-09-28T21:53:19;20.38;;;7.25;;
36787;SDS011;22738;45.560;9.434;2022-09-28T22:00:01;12.85;;;5.63;;
36787;SDS011;22738;45.560;9.434;2022-09-28T22:13:28;9.32;;;5.60;;
36787;SDS011;22738;45.560;9.434;2022-09-28T22:26:51;10.90;;;5.75;;
36787;SDS011;22738;45.560;9.434;2022-09-28T22:33:32;14.27;;;5.80;;
36787;SDS011;22738;45.560;9.434;2022-09-28T22:40:13;13.43;;;5.55;;
36787;SDS011;22738;45.560;9.434;2022-09-28T22:46:55;9.05;;;5.05;;
36787;SDS011;22738;45.560;9.434;2022-09-28T22:53:36;10.02;;;6.13;;
36787;SDS011;22738;45.560;9.434;2022-09-28T23:00:17;12.85;;;6.30;;
36787;SDS011;22738;45.560;9.434;2022-09-28T23:06:59;10.75;;;5.65;;
36787;SDS011;22738;45.560;9.434;2022-09-28T23:13:40;13.73;;;6.18;;
36787;SDS011;22738;45.560;9.434;2022-09-28T23:20:21;13.98;;;6.57;;
36787;SDS011;22738;45.560;9.434;2022-09-28T23:27:04;11.33;;;5.97;;
36787;SDS011;22738;45.560;9.434;2022-09-28T23:33:48;11.77;;;6.10;;
36787;SDS011;22738;45.560;9.434;2022-09-28T23:40:29;16.23;;;6.22;;
36787;SDS011;22738;45.560;9.434;2022-09-28T23:47:10;11.88;;;5.40;;
36787;SDS011;22738;45.560;9.434;2022-09-28T23:53:51;11.20;;;6.75;;
